createdAt,value
2019-02-25T00:01:57.554Z,71.30
2019-02-25T00:04:27.758Z,70.52
2019-02-25T00:06:59.192Z,70.88
2019-02-25T00:09:27.746Z,70.28
2019-02-25T00:11:59.413Z,70.63
2019-02-25T00:14:27.967Z,69.21
2019-02-25T00:16:56.560Z,68.88
2019-02-25T00:19:25.121Z,69.32
2019-02-25T00:21:56.502Z,69.11
2019-02-25T00:24:25.575Z,68.78
2019-02-25T00:26:54.164Z,69.02
2019-02-25T00:29:22.726Z,69.50
2019-02-25T00:31:54.066Z,68.69
2019-02-25T00:34:22.622Z,68.60
2019-02-25T00:36:51.203Z,68.31
2019-02-25T00:39:19.764Z,68.34
2019-02-25T00:41:48.349Z,68.19
2019-02-25T00:44:19.938Z,68.20
2019-02-25T00:46:51.196Z,69.00
2019-02-25T00:49:22.705Z,69.33
2019-02-25T00:51:51.276Z,69.88
2019-02-25T00:54:22.801Z,69.75
2019-02-25T00:56:51.386Z,69.95
2019-02-25T00:59:22.610Z,70.07
2019-02-25T01:01:53.874Z,70.37
2019-02-25T01:04:22.431Z,69.51
2019-02-25T01:06:51.245Z,68.80
2019-02-25T01:09:23.031Z,69.11
2019-02-25T01:11:51.627Z,68.93
2019-02-25T01:14:20.217Z,69.07
2019-02-25T01:16:48.805Z,69.03
2019-02-25T01:19:20.175Z,68.97
2019-02-25T01:21:51.656Z,68.89
2019-02-25T01:24:22.914Z,68.85
2019-02-25T01:26:51.655Z,69.59
2019-02-25T01:29:23.049Z,69.80
2019-02-25T01:31:54.619Z,69.58
2019-02-25T01:34:26.227Z,69.40
2019-02-25T01:36:57.585Z,69.37
2019-02-25T01:39:28.900Z,69.53
2019-02-25T01:42:00.262Z,70.09
2019-02-25T01:44:31.806Z,70.96
2019-02-25T01:47:03.312Z,71.60
2019-02-25T01:49:34.899Z,73.31
2019-02-25T01:52:06.251Z,73.01
2019-02-25T01:54:37.858Z,72.95
2019-02-25T01:57:09.186Z,73.38
2019-02-25T01:59:37.738Z,72.04
2019-02-25T02:02:06.323Z,72.47
2019-02-25T02:04:34.892Z,72.32
2019-02-25T02:07:06.469Z,72.96
2019-02-25T02:09:38.008Z,75.05
2019-02-25T02:12:06.596Z,76.20
2019-02-25T02:14:37.908Z,75.99
2019-02-25T02:17:06.758Z,74.55
2019-02-25T02:19:38.756Z,73.48
2019-02-25T02:22:07.350Z,71.72
2019-02-25T02:24:36.074Z,72.43
2019-02-25T02:27:04.800Z,72.44
2019-02-25T02:29:36.388Z,72.69
2019-02-25T02:32:04.983Z,73.71
2019-02-25T02:34:33.536Z,73.29
2019-02-25T02:37:04.814Z,73.25
2019-02-25T02:39:36.423Z,73.10
2019-02-25T02:42:19.746Z,73.39
2019-02-25T02:44:53.828Z,73.32
2019-02-25T02:47:31.419Z,74.91
2019-02-25T02:50:02.016Z,74.66
2019-02-25T02:52:30.598Z,74.63
2019-02-25T02:54:59.160Z,74.70
2019-02-25T02:57:27.752Z,74.39
2019-02-25T02:59:56.314Z,74.87
2019-02-25T03:02:27.815Z,75.33
2019-02-25T03:04:59.643Z,74.48
2019-02-25T03:07:31.136Z,74.30
2019-02-25T03:09:59.694Z,74.85
2019-02-25T03:12:28.692Z,76.01
2019-02-25T03:15:00.415Z,76.56
2019-02-25T03:17:30.023Z,76.48
2019-02-25T03:20:01.965Z,76.34
2019-02-25T03:22:33.444Z,77.34
2019-02-25T03:25:02.003Z,78.12
2019-02-25T03:27:33.562Z,78.65
2019-02-25T03:30:07.989Z,78.80
2019-02-25T03:32:39.517Z,78.92
2019-02-25T03:35:08.154Z,79.02
2019-02-25T03:37:36.767Z,78.38
2019-02-25T03:40:11.831Z,79.09
2019-02-25T03:42:43.950Z,79.30
2019-02-25T03:45:14.453Z,77.97
2019-02-25T03:47:45.583Z,77.98
2019-02-25T03:50:14.449Z,77.58
2019-02-25T03:52:48.975Z,77.25
2019-02-25T03:55:20.132Z,77.12
2019-02-25T03:57:51.815Z,76.57
2019-02-25T04:00:26.962Z,76.30
2019-02-25T04:02:58.484Z,75.45
2019-02-25T04:05:27.024Z,75.35
2019-02-25T04:07:58.770Z,75.25
2019-02-25T04:10:30.021Z,75.48
2019-02-25T04:13:01.293Z,74.73
2019-02-25T04:15:34.050Z,74.84
2019-02-25T04:18:03.299Z,75.20
2019-02-25T04:20:31.856Z,74.87
2019-02-25T04:23:03.182Z,74.71
2019-02-25T04:25:34.736Z,74.94
2019-02-25T04:28:03.433Z,74.79
2019-02-25T04:30:34.838Z,74.79
2019-02-25T04:33:06.139Z,74.79
2019-02-25T04:35:37.699Z,74.91
2019-02-25T04:38:09.223Z,75.16
2019-02-25T04:40:37.801Z,75.04
2019-02-25T04:43:09.213Z,75.53
2019-02-25T04:45:37.791Z,75.46
2019-02-25T04:48:09.430Z,75.20
2019-02-25T04:50:41.072Z,75.29
2019-02-25T04:53:12.346Z,74.93
2019-02-25T04:55:40.938Z,74.84
2019-02-25T04:58:14.660Z,74.48
2019-02-25T05:00:48.947Z,74.21
2019-02-25T05:03:17.506Z,74.42
2019-02-25T05:05:48.925Z,75.45
2019-02-25T05:08:20.337Z,75.88
2019-02-25T05:10:51.836Z,76.64
2019-02-25T05:13:23.699Z,77.05
2019-02-25T05:15:52.299Z,77.14
2019-02-25T05:18:23.864Z,77.51
2019-02-25T05:20:52.445Z,77.79
2019-02-25T05:23:23.992Z,78.49
2019-02-25T05:25:55.301Z,78.93
2019-02-25T05:28:23.864Z,79.50
2019-02-25T05:30:52.457Z,79.52
2019-02-25T05:33:23.939Z,78.43
2019-02-25T05:35:55.189Z,78.44
2019-02-25T05:38:26.564Z,78.32
2019-02-25T05:40:58.299Z,78.17
2019-02-25T05:43:29.856Z,78.21
2019-02-25T05:45:58.446Z,78.17
2019-02-25T05:48:29.880Z,78.46
2019-02-25T05:51:01.508Z,79.02
2019-02-25T05:53:30.084Z,78.68
2019-02-25T05:56:01.613Z,78.55
2019-02-25T05:58:32.843Z,78.66
2019-02-25T06:01:01.431Z,78.58
2019-02-25T06:03:32.670Z,78.48
2019-02-25T06:06:01.256Z,78.38
2019-02-25T06:08:32.621Z,78.11
2019-02-25T06:11:04.202Z,78.60
2019-02-25T06:13:35.443Z,78.40
2019-02-25T06:16:04.453Z,78.72
2019-02-25T06:18:36.009Z,78.81
2019-02-25T06:21:04.598Z,78.58
2019-02-25T06:23:33.308Z,78.02
2019-02-25T06:26:02.089Z,77.82
2019-02-25T06:28:30.858Z,77.64
2019-02-25T06:30:59.439Z,78.21
2019-02-25T06:33:28.007Z,78.07
2019-02-25T06:35:56.921Z,78.40
2019-02-25T06:38:28.437Z,78.84
2019-02-25T06:41:00.029Z,79.76
2019-02-25T06:43:28.592Z,79.18
2019-02-25T06:46:00.284Z,79.40
2019-02-25T06:48:29.185Z,79.73
2019-02-25T06:51:00.710Z,78.88
2019-02-25T06:53:29.270Z,79.04
2019-02-25T06:55:57.860Z,79.47
2019-02-25T06:58:29.090Z,79.64
2019-02-25T07:01:00.447Z,79.34
2019-02-25T07:03:29.009Z,79.50
2019-02-25T07:05:59.292Z,79.24
2019-02-25T07:08:46.690Z,77.91
2019-02-25T07:11:19.934Z,78.03
2019-02-25T07:14:02.113Z,78.09
2019-02-25T07:16:35.324Z,76.56
2019-02-25T07:19:05.938Z,76.15
2019-02-25T07:21:41.622Z,75.56
2019-02-25T07:24:17.606Z,75.28
2019-02-25T07:26:59.773Z,74.24
2019-02-25T07:29:41.214Z,73.28
2019-02-25T07:32:27.710Z,72.89
2019-02-25T07:35:03.963Z,72.83
2019-02-25T07:37:34.559Z,72.86
2019-02-25T07:40:16.699Z,72.39
2019-02-25T07:42:51.414Z,72.23
2019-02-25T07:45:24.143Z,72.18
2019-02-25T07:48:09.419Z,71.60
2019-02-25T07:50:54.683Z,70.96
2019-02-25T07:53:30.802Z,69.87
2019-02-25T07:56:10.155Z,69.65
2019-02-25T07:58:49.057Z,69.47
2019-02-25T08:01:22.125Z,68.49
2019-02-25T08:03:52.770Z,68.35
2019-02-25T08:06:32.178Z,67.74
2019-02-25T08:09:05.750Z,66.65
2019-02-25T08:11:48.109Z,66.55
2019-02-25T08:14:39.623Z,65.51
2019-02-25T08:17:26.168Z,65.64
2019-02-25T08:20:12.347Z,65.34
2019-02-25T08:22:42.561Z,65.06
2019-02-25T08:25:21.183Z,64.41
2019-02-25T08:28:00.065Z,62.55
2019-02-25T08:30:39.016Z,62.86
2019-02-25T08:33:21.167Z,63.46
2019-02-25T08:35:57.342Z,63.46
2019-02-25T08:38:33.219Z,62.83
2019-02-25T08:41:04.908Z,61.78
2019-02-25T08:43:43.811Z,61.37
2019-02-25T08:46:24.070Z,61.37
2019-02-25T08:49:00.352Z,60.27
2019-02-25T08:51:31.885Z,60.27
2019-02-25T08:54:00.473Z,59.96
2019-02-25T08:56:29.107Z,59.96
2019-02-25T08:58:57.686Z,59.67
2019-02-25T09:01:29.878Z,59.67
2019-02-25T09:04:00.895Z,59.35
2019-02-25T09:06:29.477Z,58.73
2019-02-25T09:09:00.979Z,58.34
2019-02-25T09:11:29.551Z,58.34
2019-02-25T09:13:58.128Z,57.75
2019-02-25T09:16:42.449Z,56.79
2019-02-25T09:19:15.742Z,56.22
2019-02-25T09:21:47.640Z,55.85
2019-02-25T09:24:18.985Z,55.22
2019-02-25T09:26:50.288Z,55.22
2019-02-25T09:29:18.870Z,54.29
2019-02-25T09:31:47.437Z,55.00
2019-02-25T09:34:22.503Z,55.55
2019-02-25T09:36:51.525Z,54.76
2019-02-25T09:39:22.827Z,53.53
2019-02-25T09:41:54.085Z,53.04
2019-02-25T09:44:25.918Z,53.66
2019-02-25T09:46:54.487Z,53.06
2019-02-25T09:49:25.783Z,52.03
2019-02-25T09:51:54.355Z,52.52
2019-02-25T09:54:22.918Z,50.76
2019-02-25T09:56:51.504Z,50.73
2019-02-25T09:59:23.024Z,52.06
2019-02-25T10:01:54.673Z,50.80
2019-02-25T10:04:25.949Z,51.18
2019-02-25T10:07:02.387Z,51.12
2019-02-25T10:09:32.429Z,50.77
2019-02-25T10:12:03.599Z,51.07
2019-02-25T10:14:34.900Z,50.34
2019-02-25T10:17:03.729Z,50.73
2019-02-25T10:19:35.395Z,50.73
2019-02-25T10:22:06.913Z,51.48
2019-02-25T10:24:39.867Z,50.72
2019-02-25T10:27:11.670Z,51.48
2019-02-25T10:29:43.003Z,51.63
2019-02-25T10:32:14.333Z,52.36
2019-02-25T10:34:47.552Z,52.17
2019-02-25T10:37:19.728Z,52.05
2019-02-25T10:39:51.544Z,51.73
2019-02-25T10:42:23.162Z,52.19
2019-02-25T10:44:54.420Z,51.84
2019-02-25T10:47:26.113Z,51.86
2019-02-25T10:49:56.574Z,52.79
2019-02-25T10:52:29.580Z,52.76
2019-02-25T10:54:58.351Z,52.07
2019-02-25T10:57:31.434Z,51.99
2019-02-25T11:00:04.602Z,52.87
2019-02-25T11:02:44.000Z,53.44
2019-02-25T11:05:09.866Z,54.21
2019-02-25T11:07:42.021Z,55.47
2019-02-25T11:10:20.239Z,53.76
2019-02-25T11:12:48.827Z,53.08
2019-02-25T11:15:17.755Z,53.47
2019-02-25T11:17:48.000Z,53.67
2019-02-25T11:20:20.511Z,53.44
2019-02-25T11:22:51.975Z,53.11
2019-02-25T11:25:25.630Z,53.65
2019-02-25T11:27:56.496Z,53.73
2019-02-25T11:30:25.069Z,53.90
2019-02-25T11:32:55.732Z,54.83
2019-02-25T11:35:24.305Z,54.67
2019-02-25T11:37:57.053Z,54.00
2019-02-25T11:40:31.066Z,54.46
2019-02-25T11:43:02.553Z,54.66
2019-02-25T11:45:36.254Z,55.68
2019-02-25T11:48:07.897Z,55.62
2019-02-25T11:50:39.186Z,55.81
2019-02-25T11:53:10.779Z,55.51
2019-02-25T11:55:42.434Z,55.74
2019-02-25T11:58:14.738Z,54.74
2019-02-25T12:00:46.394Z,54.97
2019-02-25T12:03:18.385Z,55.13
2019-02-25T12:05:46.969Z,55.22
2019-02-25T12:08:18.465Z,55.69
2019-02-25T12:10:47.030Z,56.44
2019-02-25T12:13:18.408Z,56.06
2019-02-25T12:15:46.968Z,55.23
2019-02-25T12:18:15.768Z,55.10
2019-02-25T12:20:44.334Z,55.84
2019-02-25T12:23:19.294Z,55.23
2019-02-25T12:25:47.882Z,55.12
2019-02-25T12:28:19.178Z,55.25
2019-02-25T12:30:47.813Z,55.34
2019-02-25T12:33:19.334Z,54.49
2019-02-25T12:35:47.893Z,54.90
2019-02-25T12:38:19.199Z,54.68
2019-02-25T12:40:50.773Z,55.47
2019-02-25T12:43:22.125Z,55.89
2019-02-25T12:45:50.698Z,55.42
2019-02-25T12:48:22.829Z,54.60
2019-02-25T12:50:54.579Z,54.78
2019-02-25T12:53:30.990Z,54.35
2019-02-25T12:56:00.131Z,54.28
2019-02-25T12:58:28.724Z,53.98
2019-02-25T13:00:57.604Z,53.53
2019-02-25T13:03:29.155Z,53.79
2019-02-25T13:06:01.647Z,53.87
2019-02-25T13:08:33.369Z,54.23
2019-02-25T13:11:01.937Z,54.64
2019-02-25T13:13:30.518Z,54.79
2019-02-25T13:15:59.085Z,55.21
2019-02-25T13:18:28.345Z,55.77
2019-02-25T13:20:59.582Z,55.41
2019-02-25T13:23:28.169Z,55.54
2019-02-25T13:25:56.771Z,55.86
2019-02-25T13:28:26.267Z,56.23
2019-02-25T13:30:55.731Z,56.19
2019-02-25T13:33:24.702Z,55.95
2019-02-25T13:35:53.440Z,55.61
2019-02-25T13:38:22.039Z,55.97
2019-02-25T13:40:50.609Z,56.16
2019-02-25T13:43:19.194Z,55.74
2019-02-25T13:45:47.762Z,55.41
2019-02-25T13:48:19.024Z,55.74
2019-02-25T13:50:47.666Z,56.28
2019-02-25T13:53:16.254Z,55.71
2019-02-25T13:55:46.904Z,55.27
2019-02-25T13:58:15.496Z,55.50
2019-02-25T14:00:45.709Z,55.54
2019-02-25T14:03:17.569Z,56.09
2019-02-25T14:05:46.132Z,55.96
2019-02-25T14:08:14.752Z,55.96
2019-02-25T14:10:46.665Z,56.30
2019-02-25T14:13:18.265Z,55.99
2019-02-25T14:15:49.742Z,54.84
2019-02-25T14:18:18.388Z,54.77
2019-02-25T14:20:49.636Z,54.50
2019-02-25T14:23:18.430Z,55.53
2019-02-25T14:25:51.231Z,55.45
2019-02-25T14:28:22.620Z,54.79
2019-02-25T14:30:51.672Z,53.86
2019-02-25T14:33:23.725Z,53.63
2019-02-25T14:35:55.608Z,53.92
2019-02-25T14:38:28.164Z,53.60
2019-02-25T14:41:01.881Z,54.11
2019-02-25T14:43:31.506Z,54.33
2019-02-25T14:46:04.844Z,54.34
2019-02-25T14:48:36.052Z,54.44
2019-02-25T14:51:08.816Z,54.83
2019-02-25T14:53:41.746Z,54.89
2019-02-25T14:56:10.511Z,54.54
2019-02-25T14:58:40.578Z,54.40
2019-02-25T15:01:09.530Z,54.25
2019-02-25T15:03:41.293Z,54.19
2019-02-25T15:06:14.247Z,54.40
2019-02-25T15:08:45.934Z,52.81
2019-02-25T15:11:18.042Z,53.17
2019-02-25T15:13:46.686Z,53.16
2019-02-25T15:16:18.575Z,52.92
2019-02-25T15:18:47.800Z,52.42
2019-02-25T15:21:19.755Z,52.00
2019-02-25T15:23:51.301Z,52.61
2019-02-25T15:26:23.613Z,52.06
2019-02-25T15:28:56.031Z,51.87
2019-02-25T15:31:23.702Z,51.73
2019-02-25T15:33:52.372Z,51.70
2019-02-25T15:36:24.745Z,51.78
2019-02-25T15:38:53.908Z,51.28
2019-02-25T15:41:25.502Z,50.89
2019-02-25T15:43:54.138Z,51.21
2019-02-25T15:46:26.493Z,49.71
2019-02-25T15:48:57.802Z,49.12
2019-02-25T15:51:30.405Z,50.28
2019-02-25T15:54:02.574Z,49.49
2019-02-25T15:56:34.402Z,49.27
2019-02-25T15:59:03.028Z,49.84
2019-02-25T16:01:34.661Z,49.34
2019-02-25T16:04:07.071Z,49.40
2019-02-25T16:06:37.715Z,49.51
2019-02-25T16:09:10.526Z,49.65
2019-02-25T16:11:39.748Z,50.03
2019-02-25T16:14:12.205Z,50.80
2019-02-25T16:16:40.801Z,51.12
2019-02-25T16:19:10.331Z,52.20
2019-02-25T16:21:41.011Z,51.45
2019-02-25T16:24:11.793Z,51.59
2019-02-25T16:26:40.677Z,51.72
2019-02-25T16:29:11.651Z,51.93
2019-02-25T16:31:40.542Z,52.05
2019-02-25T16:34:14.196Z,52.39
2019-02-25T16:36:42.389Z,52.77
2019-02-25T16:39:11.317Z,52.86
2019-02-25T16:41:41.750Z,52.88
2019-02-25T16:44:10.401Z,53.21
2019-02-25T16:46:41.215Z,52.97
2019-02-25T16:49:09.389Z,52.74
2019-02-25T16:51:38.361Z,52.65
2019-02-25T16:54:11.008Z,52.49
2019-02-25T16:56:37.399Z,53.46
2019-02-25T16:59:10.914Z,52.99
2019-02-25T17:01:37.666Z,52.92
2019-02-25T17:04:06.780Z,53.33
2019-02-25T17:06:36.974Z,53.76
2019-02-25T17:09:06.741Z,53.87
2019-02-25T17:11:37.410Z,53.93
2019-02-25T17:14:06.043Z,53.98
2019-02-25T17:16:35.679Z,53.72
2019-02-25T17:19:05.239Z,53.77
2019-02-25T17:21:33.970Z,53.84
2019-02-25T17:24:03.669Z,54.03
2019-02-25T17:26:33.662Z,54.43
2019-02-25T17:29:02.322Z,53.65
2019-02-25T17:31:34.529Z,54.10
2019-02-25T17:34:04.161Z,53.75
2019-02-25T17:36:36.373Z,54.11
2019-02-25T17:39:08.674Z,53.82
2019-02-25T17:41:39.844Z,54.45
2019-02-25T17:44:09.139Z,54.71
2019-02-25T17:46:41.293Z,54.75
2019-02-25T17:49:17.331Z,55.15
2019-02-25T17:51:46.456Z,54.80
2019-02-25T17:54:16.923Z,54.74
2019-02-25T17:56:49.757Z,54.72
2019-02-25T17:59:18.498Z,55.27
2019-02-25T18:01:48.456Z,54.56
2019-02-25T18:04:20.116Z,54.93
2019-02-25T18:06:48.701Z,54.70
2019-02-25T18:09:20.969Z,54.79
2019-02-25T18:11:50.438Z,54.78
2019-02-25T18:14:19.890Z,55.10
2019-02-25T18:16:49.591Z,54.57
2019-02-25T18:19:20.890Z,54.44
2019-02-25T18:21:49.250Z,54.35
2019-02-25T18:24:18.226Z,54.25
2019-02-25T18:26:47.468Z,54.31
2019-02-25T18:29:22.673Z,54.43
2019-02-25T18:31:52.193Z,54.74
2019-02-25T18:34:20.970Z,55.07
2019-02-25T18:36:51.620Z,54.59
2019-02-25T18:39:20.959Z,54.75
2019-02-25T18:41:50.953Z,55.27
2019-02-25T18:44:27.317Z,55.49
2019-02-25T18:46:56.036Z,55.36
2019-02-25T18:49:26.627Z,56.05
2019-02-25T18:51:57.637Z,55.69
2019-02-25T18:54:29.650Z,56.03
2019-02-25T18:56:59.097Z,56.03
2019-02-25T18:59:29.477Z,55.83
2019-02-25T19:02:00.934Z,56.70
2019-02-25T19:04:29.652Z,56.26
2019-02-25T19:06:59.755Z,56.78
2019-02-25T19:09:31.529Z,56.64
2019-02-25T19:12:00.125Z,56.96
2019-02-25T19:14:29.374Z,57.90
2019-02-25T19:16:59.711Z,57.74
2019-02-25T19:19:31.433Z,57.92
2019-02-25T19:21:59.878Z,57.53
2019-02-25T19:24:33.247Z,58.28
2019-02-25T19:27:06.427Z,58.23
2019-02-25T19:29:34.711Z,58.59
2019-02-25T19:32:06.162Z,58.02
2019-02-25T19:34:34.892Z,58.11
2019-02-25T19:37:05.189Z,58.31
2019-02-25T19:39:39.090Z,57.81
2019-02-25T19:42:15.090Z,58.02
2019-02-25T19:44:42.428Z,57.53
2019-02-25T19:47:11.938Z,57.67
2019-02-25T19:49:45.716Z,57.21
2019-02-25T19:52:16.661Z,56.88
2019-02-25T19:54:46.412Z,57.64
2019-02-25T19:57:16.613Z,56.55
2019-02-25T19:59:50.697Z,57.18
2019-02-25T20:02:19.114Z,57.24
2019-02-25T20:04:50.199Z,57.54
2019-02-25T20:07:20.528Z,57.40
2019-02-25T20:09:52.482Z,57.59
2019-02-25T20:12:21.135Z,57.89
2019-02-25T20:14:52.905Z,57.77
2019-02-25T20:17:25.946Z,57.52
2019-02-25T20:19:52.584Z,57.78
2019-02-25T20:22:21.209Z,58.08
2019-02-25T20:24:50.633Z,58.28
2019-02-25T20:27:20.298Z,58.87
2019-02-25T20:29:49.581Z,58.58
2019-02-25T20:32:19.026Z,59.41
2019-02-25T20:34:50.621Z,59.16
2019-02-25T20:37:22.747Z,59.55
2019-02-25T20:39:50.134Z,59.93
2019-02-25T20:42:22.389Z,60.08
2019-02-25T20:44:55.336Z,60.46
2019-02-25T20:47:25.751Z,60.25
2019-02-25T20:49:56.474Z,60.26
2019-02-25T20:52:24.628Z,60.43
2019-02-25T20:54:53.622Z,60.91
2019-02-25T20:57:22.192Z,61.20
2019-02-25T20:59:55.426Z,61.42
2019-02-25T21:02:25.656Z,61.17
2019-02-25T21:04:54.567Z,61.59
2019-02-25T21:07:24.732Z,61.78
2019-02-25T21:09:59.132Z,61.89
2019-02-25T21:12:28.209Z,62.90
2019-02-25T21:14:56.839Z,62.29
2019-02-25T21:17:28.570Z,62.45
2019-02-25T21:20:00.240Z,62.26
2019-02-25T21:22:32.213Z,62.40
2019-02-25T21:25:04.892Z,62.49
2019-02-25T21:27:37.490Z,62.68
2019-02-25T21:30:12.844Z,63.36
2019-02-25T21:32:43.235Z,63.30
2019-02-25T21:35:14.149Z,63.38
2019-02-25T21:37:47.868Z,63.69
2019-02-25T21:40:27.806Z,63.62
2019-02-25T21:42:59.362Z,63.78
2019-02-25T21:45:33.848Z,64.10
2019-02-25T21:48:14.778Z,63.64
2019-02-25T21:50:43.368Z,64.53
2019-02-25T21:53:16.079Z,64.53
2019-02-25T21:55:48.023Z,65.54
2019-02-25T21:58:18.926Z,64.36
2019-02-25T22:00:47.311Z,64.44
2019-02-25T22:03:19.601Z,64.74
2019-02-25T22:05:53.948Z,65.07
2019-02-25T22:08:24.357Z,65.14
2019-02-25T22:10:58.246Z,65.28
2019-02-25T22:13:29.482Z,66.11
2019-02-25T22:16:01.821Z,66.08
2019-02-25T22:18:36.346Z,66.08
2019-02-25T22:21:07.224Z,65.82
2019-02-25T22:23:38.305Z,65.94
2019-02-25T22:26:06.907Z,66.34
2019-02-25T22:28:37.588Z,66.34
2019-02-25T22:31:10.820Z,66.38
2019-02-25T22:33:39.152Z,65.69
2019-02-25T22:36:10.670Z,65.69
2019-02-25T22:38:39.258Z,66.12
2019-02-25T22:41:07.852Z,66.12
2019-02-25T22:43:41.342Z,66.97
2019-02-25T22:46:11.647Z,66.33
2019-02-25T22:48:44.957Z,66.07
2019-02-25T22:51:16.204Z,66.26
2019-02-25T22:53:47.699Z,66.25
2019-02-25T22:56:21.474Z,66.74
2019-02-25T22:58:49.795Z,66.88
2019-02-25T23:01:19.003Z,66.66
2019-02-25T23:03:49.792Z,66.58
2019-02-25T23:06:23.083Z,66.75
2019-02-25T23:08:55.656Z,66.33
2019-02-25T23:11:28.702Z,66.33
2019-02-25T23:14:07.762Z,66.05
2019-02-25T23:17:17.947Z,66.58
2019-02-25T23:23:21.209Z,66.61
2019-02-25T23:25:53.760Z,66.22
2019-02-25T23:28:22.818Z,66.15
2019-02-25T23:30:58.385Z,65.83
2019-02-25T23:33:26.975Z,65.70
2019-02-25T23:35:58.317Z,65.70
2019-02-25T23:38:29.773Z,66.13
2019-02-25T23:41:01.256Z,66.03
2019-02-25T23:43:28.635Z,66.03
2019-02-25T23:46:00.145Z,66.00
2019-02-25T23:48:33.724Z,66.29
2019-02-25T23:51:05.676Z,65.85
2019-02-25T23:53:37.466Z,65.97
2019-02-25T23:56:06.068Z,66.04
2019-02-25T23:58:40.341Z,66.08
